Aligote — V7TQ2 — position and weather

sailwx.info

Track history (hours):
 
Tides and Currents Weather Stations Pressure Air Temp Water Temp Dewpoint Dewpoint Depression Visibility Wind Speed Wind Dir Waves Ship Positions

Aligote

Last reported at 2017-Sep-18 23:59 UTC. Time now 2017-Oct-22 23:02 UTC.
Position N 28°05' W 016°16'.
Warning: this ship's position is 33 days out of date.

Length 230 m; draft 13 m.

Type: Tanker. MMSI: 538003857.

Date/timePositionNaut miles runAvg speedWind from/ knotsBaromVisibWave heightAir tempDewpointWater temp
2017-Sep-18 23:59N 28°05' W 016°16'913.8
2017-Sep-18 23:18N 28°12' W 016°09'1613.3
2017-Sep-18 22:03N 28°25' W 015°57'  
2017-Sep-13 20:08N 50°29' W 000°03'68 9.2
2017-Sep-13 12:47N 51°03' E 001°30'311.8
2017-Sep-13 12:30N 51°05' E 001°34'612.3
2017-Sep-13 12:00N 51°10' E 001°40'612.0
2017-Sep-13 11:30N 51°14' E 001°47'611.8
2017-Sep-13 11:00N 51°20' E 001°51'510.5
2017-Sep-13 10:30N 51°24' E 001°54'108 7.9
2017-Sep-12 20:51N 52°31' E 004°13'1 1.0
2017-Sep-12 19:24N 52°32' E 004°15'0 0.0
2017-Sep-12 18:51N 52°32' E 004°15'0 0.0
2017-Sep-12 18:30N 52°32' E 004°15'0 0.1
2017-Sep-12 16:03N 52°31' E 004°15'0 0.2
2017-Sep-12 16:00N 52°31' E 004°15'0 0.1
2017-Sep-12 15:30N 52°31' E 004°15'0 0.0
2017-Sep-12 15:00N 52°31' E 004°15'0 0.0
2017-Sep-12 14:00N 52°31' E 004°15'0 0.0
2017-Sep-12 13:30N 52°31' E 004°15'0 0.0
2017-Sep-12 12:57N 52°31' E 004°15'0 0.2
2017-Sep-12 12:21N 52°31' E 004°15'0 0.5
2017-Sep-12 12:00N 52°31' E 004°15'4 8.0
2017-Sep-12 11:30N 52°29' E 004°21'4 7.3
2017-Sep-12 11:00N 52°28' E 004°26'5 9.5
2017-Sep-12 10:30N 52°28' E 004°34'2 3.1
2017-Sep-12 10:00N 52°28' E 004°37'1 1.8
2017-Sep-12 09:30N 52°28' E 004°38'4 7.2
2017-Sep-12 09:00N 52°26' E 004°43'4 7.1
2017-Sep-12 08:31N 52°25' E 004°49'1 1.3
2017-Sep-12 07:43N 52°24' E 004°49'0 0.0
2017-Sep-12 07:28N 52°24' E 004°49'0 0.0
2017-Sep-12 06:10N 52°24' E 004°49'0 0.0
2017-Sep-12 05:46N 52°24' E 004°49'0 0.0
2017-Sep-12 05:28N 52°24' E 004°49'0 0.0
2017-Sep-12 04:43N 52°24' E 004°49'0 0.0
2017-Sep-12 04:28N 52°24' E 004°49'0 0.0
2017-Sep-12 03:55N 52°24' E 004°49'0 0.0
2017-Sep-12 03:28N 52°24' E 004°49'0 0.0
2017-Sep-12 02:10N 52°24' E 004°49'0 0.0
2017-Sep-12 01:55N 52°24' E 004°49'0 0.0
2017-Sep-12 01:28N 52°24' E 004°49'0 0.0
2017-Sep-12 00:55N 52°24' E 004°49'0 0.0
2017-Sep-12 00:28N 52°24' E 004°49'0 0.0
2017-Sep-11 23:58N 52°24' E 004°49'0 0.0
2017-Sep-11 23:25N 52°24' E 004°49'0 0.0
2017-Sep-11 21:28N 52°24' E 004°49'0 0.0
2017-Sep-11 19:58N 52°24' E 004°49'0 0.0
2017-Sep-11 19:22N 52°24' E 004°49'0 0.0
2017-Sep-11 18:22N 52°24' E 004°49'0 0.0
2017-Sep-11 17:52N 52°24' E 004°49'0 0.0
2017-Sep-11 16:46N 52°24' E 004°49'0 0.0
2017-Sep-11 16:28N 52°24' E 004°49'0 0.0
2017-Sep-11 15:58N 52°24' E 004°49'0 0.0
2017-Sep-11 14:19N 52°24' E 004°49'0 0.0
2017-Sep-11 13:10N 52°24' E 004°49'0 0.0
2017-Sep-11 07:04N 52°24' E 004°49'0 0.0
2017-Sep-11 04:58N 52°24' E 004°49'0 0.0
2017-Sep-11 04:25N 52°24' E 004°49'0 0.0
2017-Sep-11 03:58N 52°24' E 004°49'0 0.0
2017-Sep-11 03:28N 52°24' E 004°49'0 0.0
2017-Sep-11 02:49N 52°24' E 004°49'0 0.0
2017-Sep-11 02:10N 52°24' E 004°49'0 0.0
2017-Sep-10 22:01N 52°24' E 004°49'0 0.0
2017-Sep-10 21:46N 52°24' E 004°49'0 0.0
2017-Sep-10 21:19N 52°24' E 004°49'0 0.0
2017-Sep-10 19:40N 52°24' E 004°49'0 0.0
2017-Sep-10 19:22N 52°24' E 004°49'0 0.0
2017-Sep-10 18:58N 52°24' E 004°49'0 0.0
2017-Sep-10 18:25N 52°24' E 004°49'0 0.0
2017-Sep-10 17:46N 52°24' E 004°49'0 0.0
2017-Sep-10 17:25N 52°24' E 004°49'0 0.0
2017-Sep-10 16:55N 52°24' E 004°49'0 0.0
2017-Sep-10 16:01N 52°24' E 004°49'0 0.0
2017-Sep-10 15:46N 52°24' E 004°49'0 0.0
2017-Sep-10 15:28N 52°24' E 004°49'0 0.0
2017-Sep-10 13:58N 52°24' E 004°49'0 0.0
2017-Sep-10 13:28N 52°24' E 004°49'0 0.0
2017-Sep-10 12:46N 52°24' E 004°49'0 0.0
2017-Sep-10 12:28N 52°24' E 004°49'0 0.0
2017-Sep-10 11:49N 52°24' E 004°49'0 0.0
2017-Sep-10 11:25N 52°24' E 004°49'0 0.0
2017-Sep-10 10:52N 52°24' E 004°49'0 0.0
2017-Sep-10 09:37N 52°24' E 004°49'0 0.0
2017-Sep-10 09:22N 52°24' E 004°49'0 0.0
2017-Sep-10 08:46N 52°24' E 004°49'0 0.0
2017-Sep-10 08:16N 52°24' E 004°49'0 0.0
2017-Sep-10 07:55N 52°24' E 004°49'0 0.0
2017-Sep-10 07:13N 52°24' E 004°49'0 0.0
2017-Sep-10 06:55N 52°24' E 004°49'0 0.0
2017-Sep-10 06:28N 52°24' E 004°49'0 0.0
2017-Sep-10 05:58N 52°24' E 004°49'0 0.0
2017-Sep-10 05:28N 52°24' E 004°49'0 0.0
2017-Sep-10 04:58N 52°24' E 004°49'0 0.0
2017-Sep-10 04:22N 52°24' E 004°49'0 0.0
2017-Sep-10 03:58N 52°24' E 004°49'0 0.0
2017-Sep-10 03:28N 52°24' E 004°49'0 0.0
2017-Sep-10 02:55N 52°24' E 004°49'0 0.0
2017-Sep-10 02:28N 52°24' E 004°49'0 0.0
2017-Sep-10 01:58N 52°24' E 004°49'0 0.0
2017-Sep-10 01:16N 52°24' E 004°49'0 0.0
2017-Sep-10 00:55N 52°24' E 004°49'0 0.0
2017-Sep-10 00:28N 52°24' E 004°49'0 0.0
2017-Sep-09 23:49N 52°24' E 004°49'0 0.0
2017-Sep-09 23:22N 52°24' E 004°49'0 0.0
2017-Sep-09 22:40N 52°24' E 004°49'0 0.0
2017-Sep-09 22:22N 52°24' E 004°49'0 0.0
2017-Sep-09 21:58N 52°24' E 004°49'0 0.0
2017-Sep-09 21:28N 52°24' E 004°49'0 0.0
2017-Sep-09 20:55N 52°24' E 004°49'0 0.0
2017-Sep-09 20:28N 52°24' E 004°49'0 0.0
2017-Sep-09 19:46N 52°24' E 004°49'0 0.0
2017-Sep-09 19:25N 52°24' E 004°49'0 0.0
2017-Sep-09 18:58N 52°24' E 004°49'0 0.0
2017-Sep-09 18:28N 52°24' E 004°49'0 0.0
2017-Sep-09 17:58N 52°24' E 004°49'0 0.0
2017-Sep-09 17:28N 52°24' E 004°49'0 0.0
2017-Sep-09 16:46N 52°24' E 004°49'0 0.0
2017-Sep-09 16:13N 52°24' E 004°49'0 0.0
2017-Sep-09 15:58N 52°24' E 004°49'0 0.0
2017-Sep-09 15:16N 52°24' E 004°49'0 0.0
2017-Sep-09 14:58N 52°24' E 004°49'0 0.0
2017-Sep-09 14:28N 52°24' E 004°49'0 0.0
2017-Sep-09 13:58N 52°24' E 004°49'0 0.0
2017-Sep-09 13:28N 52°24' E 004°49'0 0.0
2017-Sep-09 12:58N 52°24' E 004°49'0 0.0
2017-Sep-09 12:10N 52°24' E 004°49'0 0.0
2017-Sep-09 11:49N 52°24' E 004°49'0 0.0
2017-Sep-09 10:52N 52°24' E 004°49'0 0.0
2017-Sep-09 10:19N 52°24' E 004°49'0 0.0
2017-Sep-09 09:58N 52°24' E 004°49'0 0.0
2017-Sep-09 09:22N 52°24' E 004°49'0 0.0
2017-Sep-09 08:49N 52°24' E 004°49'0 0.0
2017-Sep-09 08:25N 52°24' E 004°49'0 0.0
2017-Sep-09 07:58N 52°24' E 004°49'0 0.0
2017-Sep-09 07:19N 52°24' E 004°49'0 0.0
2017-Sep-09 06:58N 52°24' E 004°49'0 0.0
2017-Sep-09 06:28N 52°24' E 004°49'0 0.0
2017-Sep-09 05:58N 52°24' E 004°49'0 0.0
2017-Sep-09 05:25N 52°24' E 004°49'0 0.0
2017-Sep-09 04:55N 52°24' E 004°49'0 0.0
2017-Sep-09 04:28N 52°24' E 004°49'0 0.0
2017-Sep-09 03:58N 52°24' E 004°49'0 0.0
2017-Sep-09 03:19N 52°24' E 004°49'0 0.0
2017-Sep-09 02:58N 52°24' E 004°49'0 0.0
2017-Sep-09 02:28N 52°24' E 004°49'0 0.0
2017-Sep-09 01:58N 52°24' E 004°49'0 0.0
2017-Sep-09 01:28N 52°24' E 004°49'0 0.0
2017-Sep-09 00:52N 52°24' E 004°49'0 0.0
2017-Sep-09 00:22N 52°24' E 004°49'  
Track history (hours):
 
Tides and Currents Weather Stations Pressure Air Temp Water Temp Dewpoint Dewpoint Depression Visibility Wind Speed Wind Dir Waves Ship Positions

Aligote

Last reported at 2017-Sep-18 23:59 UTC. Time now 2017-Oct-22 23:02 UTC.
Position N 28°05' W 016°16'.
Warning: this ship's position is 33 days out of date.

Length 230 m; draft 13 m.

Type: Tanker. MMSI: 538003857.

Date/timePositionNaut miles runAvg speedWind from/ knotsBaromVisibWave heightAir tempDewpointWater temp
2017-Sep-18 23:59N 28°05' W 016°16'913.8
2017-Sep-18 23:18N 28°12' W 016°09'1613.3
2017-Sep-18 22:03N 28°25' W 015°57'  
2017-Sep-13 20:08N 50°29' W 000°03'68 9.2
2017-Sep-13 12:47N 51°03' E 001°30'311.8
2017-Sep-13 12:30N 51°05' E 001°34'612.3
2017-Sep-13 12:00N 51°10' E 001°40'612.0
2017-Sep-13 11:30N 51°14' E 001°47'611.8
2017-Sep-13 11:00N 51°20' E 001°51'510.5
2017-Sep-13 10:30N 51°24' E 001°54'108 7.9
2017-Sep-12 20:51N 52°31' E 004°13'1 1.0
2017-Sep-12 19:24N 52°32' E 004°15'0 0.0
2017-Sep-12 18:51N 52°32' E 004°15'0 0.0
2017-Sep-12 18:30N 52°32' E 004°15'0 0.1
2017-Sep-12 16:03N 52°31' E 004°15'0 0.2
2017-Sep-12 16:00N 52°31' E 004°15'0 0.1
2017-Sep-12 15:30N 52°31' E 004°15'0 0.0
2017-Sep-12 15:00N 52°31' E 004°15'0 0.0
2017-Sep-12 14:00N 52°31' E 004°15'0 0.0
2017-Sep-12 13:30N 52°31' E 004°15'0 0.0
2017-Sep-12 12:57N 52°31' E 004°15'0 0.2
2017-Sep-12 12:21N 52°31' E 004°15'0 0.5
2017-Sep-12 12:00N 52°31' E 004°15'4 8.0
2017-Sep-12 11:30N 52°29' E 004°21'4 7.3
2017-Sep-12 11:00N 52°28' E 004°26'5 9.5
2017-Sep-12 10:30N 52°28' E 004°34'2 3.1
2017-Sep-12 10:00N 52°28' E 004°37'1 1.8
2017-Sep-12 09:30N 52°28' E 004°38'4 7.2
2017-Sep-12 09:00N 52°26' E 004°43'4 7.1
2017-Sep-12 08:31N 52°25' E 004°49'1 1.3
2017-Sep-12 07:43N 52°24' E 004°49'0 0.0
2017-Sep-12 07:28N 52°24' E 004°49'0 0.0
2017-Sep-12 06:10N 52°24' E 004°49'0 0.0
2017-Sep-12 05:46N 52°24' E 004°49'0 0.0
2017-Sep-12 05:28N 52°24' E 004°49'0 0.0
2017-Sep-12 04:43N 52°24' E 004°49'0 0.0
2017-Sep-12 04:28N 52°24' E 004°49'0 0.0
2017-Sep-12 03:55N 52°24' E 004°49'0 0.0
2017-Sep-12 03:28N 52°24' E 004°49'0 0.0
2017-Sep-12 02:10N 52°24' E 004°49'0 0.0
2017-Sep-12 01:55N 52°24' E 004°49'0 0.0
2017-Sep-12 01:28N 52°24' E 004°49'0 0.0
2017-Sep-12 00:55N 52°24' E 004°49'0 0.0
2017-Sep-12 00:28N 52°24' E 004°49'0 0.0
2017-Sep-11 23:58N 52°24' E 004°49'0 0.0
2017-Sep-11 23:25N 52°24' E 004°49'0 0.0
2017-Sep-11 21:28N 52°24' E 004°49'0 0.0
2017-Sep-11 19:58N 52°24' E 004°49'0 0.0
2017-Sep-11 19:22N 52°24' E 004°49'0 0.0
2017-Sep-11 18:22N 52°24' E 004°49'0 0.0
2017-Sep-11 17:52N 52°24' E 004°49'0 0.0
2017-Sep-11 16:46N 52°24' E 004°49'0 0.0
2017-Sep-11 16:28N 52°24' E 004°49'0 0.0
2017-Sep-11 15:58N 52°24' E 004°49'0 0.0
2017-Sep-11 14:19N 52°24' E 004°49'0 0.0
2017-Sep-11 13:10N 52°24' E 004°49'0 0.0
2017-Sep-11 07:04N 52°24' E 004°49'0 0.0
2017-Sep-11 04:58N 52°24' E 004°49'0 0.0
2017-Sep-11 04:25N 52°24' E 004°49'0 0.0
2017-Sep-11 03:58N 52°24' E 004°49'0 0.0
2017-Sep-11 03:28N 52°24' E 004°49'0 0.0
2017-Sep-11 02:49N 52°24' E 004°49'0 0.0
2017-Sep-11 02:10N 52°24' E 004°49'0 0.0
2017-Sep-10 22:01N 52°24' E 004°49'0 0.0
2017-Sep-10 21:46N 52°24' E 004°49'0 0.0
2017-Sep-10 21:19N 52°24' E 004°49'0 0.0
2017-Sep-10 19:40N 52°24' E 004°49'0 0.0
2017-Sep-10 19:22N 52°24' E 004°49'0 0.0
2017-Sep-10 18:58N 52°24' E 004°49'0 0.0
2017-Sep-10 18:25N 52°24' E 004°49'0 0.0
2017-Sep-10 17:46N 52°24' E 004°49'0 0.0
2017-Sep-10 17:25N 52°24' E 004°49'0 0.0
2017-Sep-10 16:55N 52°24' E 004°49'0 0.0
2017-Sep-10 16:01N 52°24' E 004°49'0 0.0
2017-Sep-10 15:46N 52°24' E 004°49'0 0.0
2017-Sep-10 15:28N 52°24' E 004°49'0 0.0
2017-Sep-10 13:58N 52°24' E 004°49'0 0.0
2017-Sep-10 13:28N 52°24' E 004°49'0 0.0
2017-Sep-10 12:46N 52°24' E 004°49'0 0.0
2017-Sep-10 12:28N 52°24' E 004°49'0 0.0
2017-Sep-10 11:49N 52°24' E 004°49'0 0.0
2017-Sep-10 11:25N 52°24' E 004°49'0 0.0
2017-Sep-10 10:52N 52°24' E 004°49'0 0.0
2017-Sep-10 09:37N 52°24' E 004°49'0 0.0
2017-Sep-10 09:22N 52°24' E 004°49'0 0.0
2017-Sep-10 08:46N 52°24' E 004°49'0 0.0
2017-Sep-10 08:16N 52°24' E 004°49'0 0.0
2017-Sep-10 07:55N 52°24' E 004°49'0 0.0
2017-Sep-10 07:13N 52°24' E 004°49'0 0.0
2017-Sep-10 06:55N 52°24' E 004°49'0 0.0
2017-Sep-10 06:28N 52°24' E 004°49'0 0.0
2017-Sep-10 05:58N 52°24' E 004°49'0 0.0
2017-Sep-10 05:28N 52°24' E 004°49'0 0.0
2017-Sep-10 04:58N 52°24' E 004°49'0 0.0
2017-Sep-10 04:22N 52°24' E 004°49'0 0.0
2017-Sep-10 03:58N 52°24' E 004°49'0 0.0
2017-Sep-10 03:28N 52°24' E 004°49'0 0.0
2017-Sep-10 02:55N 52°24' E 004°49'0 0.0
2017-Sep-10 02:28N 52°24' E 004°49'0 0.0
2017-Sep-10 01:58N 52°24' E 004°49'0 0.0
2017-Sep-10 01:16N 52°24' E 004°49'0 0.0
2017-Sep-10 00:55N 52°24' E 004°49'0 0.0
2017-Sep-10 00:28N 52°24' E 004°49'0 0.0
2017-Sep-09 23:49N 52°24' E 004°49'0 0.0
2017-Sep-09 23:22N 52°24' E 004°49'0 0.0
2017-Sep-09 22:40N 52°24' E 004°49'0 0.0
2017-Sep-09 22:22N 52°24' E 004°49'0 0.0
2017-Sep-09 21:58N 52°24' E 004°49'0 0.0
2017-Sep-09 21:28N 52°24' E 004°49'0 0.0
2017-Sep-09 20:55N 52°24' E 004°49'0 0.0
2017-Sep-09 20:28N 52°24' E 004°49'0 0.0
2017-Sep-09 19:46N 52°24' E 004°49'0 0.0
2017-Sep-09 19:25N 52°24' E 004°49'0 0.0
2017-Sep-09 18:58N 52°24' E 004°49'0 0.0
2017-Sep-09 18:28N 52°24' E 004°49'0 0.0
2017-Sep-09 17:58N 52°24' E 004°49'0 0.0
2017-Sep-09 17:28N 52°24' E 004°49'0 0.0
2017-Sep-09 16:46N 52°24' E 004°49'0 0.0
2017-Sep-09 16:13N 52°24' E 004°49'0 0.0
2017-Sep-09 15:58N 52°24' E 004°49'0 0.0
2017-Sep-09 15:16N 52°24' E 004°49'0 0.0
2017-Sep-09 14:58N 52°24' E 004°49'0 0.0
2017-Sep-09 14:28N 52°24' E 004°49'0 0.0
2017-Sep-09 13:58N 52°24' E 004°49'0 0.0
2017-Sep-09 13:28N 52°24' E 004°49'0 0.0
2017-Sep-09 12:58N 52°24' E 004°49'0 0.0
2017-Sep-09 12:10N 52°24' E 004°49'0 0.0
2017-Sep-09 11:49N 52°24' E 004°49'0 0.0
2017-Sep-09 10:52N 52°24' E 004°49'0 0.0
2017-Sep-09 10:19N 52°24' E 004°49'0 0.0
2017-Sep-09 09:58N 52°24' E 004°49'0 0.0
2017-Sep-09 09:22N 52°24' E 004°49'0 0.0
2017-Sep-09 08:49N 52°24' E 004°49'0 0.0
2017-Sep-09 08:25N 52°24' E 004°49'0 0.0
2017-Sep-09 07:58N 52°24' E 004°49'0 0.0
2017-Sep-09 07:19N 52°24' E 004°49'0 0.0
2017-Sep-09 06:58N 52°24' E 004°49'0 0.0
2017-Sep-09 06:28N 52°24' E 004°49'0 0.0
2017-Sep-09 05:58N 52°24' E 004°49'0 0.0
2017-Sep-09 05:25N 52°24' E 004°49'0 0.0
2017-Sep-09 04:55N 52°24' E 004°49'0 0.0
2017-Sep-09 04:28N 52°24' E 004°49'0 0.0
2017-Sep-09 03:58N 52°24' E 004°49'0 0.0
2017-Sep-09 03:19N 52°24' E 004°49'0 0.0
2017-Sep-09 02:58N 52°24' E 004°49'0 0.0
2017-Sep-09 02:28N 52°24' E 004°49'0 0.0
2017-Sep-09 01:58N 52°24' E 004°49'0 0.0
2017-Sep-09 01:28N 52°24' E 004°49'0 0.0
2017-Sep-09 00:52N 52°24' E 004°49'0 0.0
2017-Sep-09 00:22N 52°24' E 004°49'  

Dump ship's entire track history